TimeEDT,TemperatureF,Dew PointF,Humidity,Sea Level PressureIn,VisibilityMPH,Wind Direction,Wind SpeedMPH,Gust SpeedMPH,PrecipitationIn,Events,Conditions,WindDirDegrees,DateUTC
12:18 AM,41.0,32.0,70,29.86,4.0,Variable,4.6,-,0.07,Rain,Light Rain,0,2014-03-28 04:18:00
12:37 AM,39.2,33.8,81,29.87,2.0,Variable,3.5,-,0.13,Rain,Rain,0,2014-03-28 04:37:00
12:51 AM,39.2,33.8,81,29.85,4.0,Variable,3.5,-,0.16,Rain,Light Rain,0,2014-03-28 04:51:00
12:53 AM,39.9,34.0,79,29.88,4.0,Variable,4.6,-,0.16,Rain,Light Rain,0,2014-03-28 04:53:00
1:53 AM,42.1,32.0,67,29.84,10.0,Calm,Calm,-,0.01,,Overcast,0,2014-03-28 05:53:00
2:53 AM,43.0,30.0,60,29.81,10.0,Variable,3.5,-,0.00,,Overcast,0,2014-03-28 06:53:00
3:53 AM,46.0,27.0,47,29.79,10.0,SSE,5.8,-,N/A,,Overcast,160,2014-03-28 07:53:00
4:53 AM,46.9,27.0,46,29.78,10.0,South,8.1,-,N/A,,Overcast,180,2014-03-28 08:53:00
5:53 AM,50.0,28.9,44,29.77,10.0,SSW,16.1,26.5,N/A,,Overcast,200,2014-03-28 09:53:00
6:53 AM,50.0,35.1,57,29.76,10.0,SSW,19.6,27.6,N/A,,Overcast,200,2014-03-28 10:53:00
7:53 AM,50.0,37.0,61,29.77,10.0,South,16.1,28.8,N/A,,Mostly Cloudy,190,2014-03-28 11:53:00
8:53 AM,51.1,39.0,63,29.76,10.0,South,16.1,28.8,N/A,,Overcast,190,2014-03-28 12:53:00
9:53 AM,52.0,39.9,63,29.76,10.0,SSW,16.1,26.5,N/A,,Mostly Cloudy,200,2014-03-28 13:53:00
10:18 AM,51.8,39.2,62,29.74,10.0,SSW,13.8,23.0,N/A,,Overcast,200,2014-03-28 14:18:00
10:53 AM,53.1,41.0,64,29.77,10.0,SW,12.7,26.5,N/A,,Overcast,220,2014-03-28 14:53:00
11:53 AM,53.1,42.1,66,29.78,10.0,SSW,10.4,23.0,0.00,,Overcast,210,2014-03-28 15:53:00
12:53 PM,54.0,44.1,69,29.78,8.0,SW,10.4,18.4,0.00,Rain,Light Rain,220,2014-03-28 16:53:00
1:39 PM,53.6,46.4,77,29.78,1.8,SW,10.4,-,0.02,Rain,Rain,220,2014-03-28 17:39:00
1:53 PM,52.0,46.9,83,29.80,1.2,SW,11.5,19.6,0.05,Rain,Rain,230,2014-03-28 17:53:00
2:03 PM,51.8,48.2,88,29.78,3.0,SW,9.2,19.6,0.00,Rain,Light Rain,220,2014-03-28 18:03:00
2:12 PM,51.8,48.2,88,29.78,4.0,SW,10.4,20.7,0.01,Rain,Light Rain,220,2014-03-28 18:12:00
2:51 PM,51.8,46.4,82,29.81,7.0,SW,9.2,20.7,0.01,Rain,Light Rain,220,2014-03-28 18:51:00
2:53 PM,52.0,46.9,83,29.83,4.0,WSW,10.4,20.7,0.01,Rain,Light Rain,240,2014-03-28 18:53:00
3:01 PM,51.8,46.4,82,29.82,2.5,WSW,12.7,19.6,0.01,Rain,Light Rain,250,2014-03-28 19:01:00
3:09 PM,51.8,46.4,82,29.83,9.0,WSW,16.1,27.6,0.01,,Overcast,250,2014-03-28 19:09:00
3:53 PM,48.0,42.1,80,29.89,10.0,West,18.4,25.3,0.02,,Overcast,270,2014-03-28 19:53:00
4:53 PM,45.0,37.9,76,29.97,10.0,West,17.3,28.8,N/A,,Overcast,270,2014-03-28 20:53:00
5:44 PM,42.8,37.4,81,30.00,3.0,West,15.0,21.9,N/A,,Haze,270,2014-03-28 21:44:00
5:50 PM,42.8,37.4,81,30.01,1.8,West,15.0,-,N/A,,Overcast,260,2014-03-28 21:50:00
5:53 PM,42.1,37.9,85,30.03,1.8,West,12.7,21.9,N/A,,Overcast,270,2014-03-28 21:53:00
6:07 PM,41.0,37.4,87,30.03,2.0,WNW,10.4,19.6,N/A,,Overcast,290,2014-03-28 22:07:00
6:18 PM,41.0,37.4,87,30.04,5.0,West,10.4,19.6,N/A,,Overcast,280,2014-03-28 22:18:00
6:25 PM,39.2,37.4,93,30.05,4.0,WNW,10.4,-,N/A,,Overcast,290,2014-03-28 22:25:00
6:48 PM,39.2,35.6,87,30.07,2.5,WNW,10.4,17.3,N/A,,Overcast,300,2014-03-28 22:48:00
6:53 PM,39.0,35.1,86,30.09,2.5,WNW,10.4,17.3,N/A,,Overcast,300,2014-03-28 22:53:00
7:03 PM,37.4,35.6,93,30.08,1.5,WNW,6.9,18.4,N/A,,Overcast,290,2014-03-28 23:03:00
7:21 PM,37.4,35.6,93,30.09,2.5,WNW,5.8,-,N/A,,Overcast,300,2014-03-28 23:21:00
7:28 PM,37.4,35.6,93,30.10,4.0,NW,8.1,-,N/A,,Overcast,310,2014-03-28 23:28:00
7:53 PM,37.0,34.0,89,30.13,4.0,NW,6.9,-,N/A,,Overcast,310,2014-03-28 23:53:00
8:53 PM,36.0,32.0,86,30.14,8.0,North,4.6,-,N/A,,Overcast,350,2014-03-29 00:53:00
9:06 PM,35.6,32.0,87,30.12,10.0,North,6.9,-,N/A,,Overcast,360,2014-03-29 01:06:00
9:18 PM,35.6,32.0,87,30.12,10.0,North,5.8,-,N/A,,Overcast,360,2014-03-29 01:18:00
9:53 PM,35.1,30.9,85,30.15,10.0,North,4.6,-,N/A,,Overcast,360,2014-03-29 01:53:00
10:11 PM,33.8,30.2,87,30.13,10.0,North,4.6,-,N/A,,Scattered Clouds,360,2014-03-29 02:11:00
10:53 PM,33.1,30.0,89,30.17,10.0,North,3.5,-,N/A,,Clear,10,2014-03-29 02:53:00
11:53 PM,32.0,28.9,88,30.18,10.0,Calm,Calm,-,N/A,,Clear,0,2014-03-29 03:53:00